Fesco Vladimir — 5BSL2 — position and weather

sailwx.info

Track history (hours):
 
Tides and Currents Weather Stations Pressure Air Temp Water Temp Dewpoint Dewpoint Depression Visibility Wind Speed Wind Dir Waves Ship Positions

Fesco Vladimir

Last reported at 2015-Apr-01 20:33 UTC. Time now 2015-Apr-01 21:19 UTC.
Position N 40°30' W 073°39'.

Length 184 m; draft 8.5 m.

Type: Cargo ship. MMSI: 209777000.

Date/timePositionNaut miles runAvg speedWind from/ knotsBaromVisibWave heightAir tempDewpointWater temp
2015-Apr-01 20:33N 40°30' W 073°39'1610.9
2015-Apr-01 19:06N 40°15' W 073°45'1114.1
2015-Apr-01 18:20N 40°04' W 073°43'1114.6
2015-Apr-01 17:33N 39°53' W 073°41'1414.3
2015-Apr-01 16:33N 39°39' W 073°41'1414.1
2015-Apr-01 15:33N 39°24' W 073°44'32714.1
2015-Mar-31 16:25N 34°15' W 075°58'1214.0
2015-Mar-31 15:32N 34°08' W 076°10'1010.3
2015-Mar-31 14:33N 34°02' W 076°20'1714.9
2015-Mar-31 13:26N 33°53' W 076°36'227 8.3
2015-Mar-30 10:04N 31°58' W 080°30'7 9.8
2015-Mar-30 09:19N 31°58' W 080°39'810.6
2015-Mar-30 08:33N 32°00' W 080°48'1111.4
2015-Mar-30 07:34N 32°06' W 080°60'7 6.5
2015-Mar-30 06:33N 32°07' W 081°07'1 1.4
2015-Mar-30 05:33N 32°08' W 081°08'0 0.0
2015-Mar-30 04:33N 32°08' W 081°08'0 0.0
2015-Mar-30 03:33N 32°08' W 081°08'0 0.0
2015-Mar-30 02:33N 32°08' W 081°08'0 0.0
2015-Mar-30 01:33N 32°08' W 081°08'0 0.0
2015-Mar-30 00:33N 32°08' W 081°08'0 0.0
2015-Mar-29 23:33N 32°08' W 081°08'0 0.0
2015-Mar-29 22:33N 32°08' W 081°08'0 0.0
2015-Mar-29 21:33N 32°08' W 081°08'0 0.0
2015-Mar-29 20:33N 32°08' W 081°08'0 0.0
2015-Mar-29 19:33N 32°08' W 081°08'0 0.0
2015-Mar-29 18:33N 32°08' W 081°08'0 0.0
2015-Mar-29 17:30N 32°08' W 081°08'0 0.0
2015-Mar-29 16:33N 32°08' W 081°08'0 0.0
2015-Mar-29 15:33N 32°08' W 081°08'2 1.8
2015-Mar-29 14:33N 32°06' W 081°07'6 6.0
2015-Mar-29 13:33N 32°06' W 081°00'1111.0
2015-Mar-29 12:34N 32°01' W 080°48'1111.2
2015-Mar-29 11:34N 31°58' W 080°36'10 9.6
2015-Mar-29 10:34N 31°58' W 080°24'25515.7
2015-Mar-28 18:19N 34°22' W 076°13'317 6.3
2015-Mar-26 16:19N 39°20' W 073°59'1013.4
2015-Mar-26 15:33N 39°30' W 073°56'1313.2
2015-Mar-26 14:34N 39°43' W 073°52'1413.6
2015-Mar-26 13:32N 39°57' W 073°51'2814.2
2015-Mar-26 11:33N 40°25' W 073°49'8 8.2
2015-Mar-26 10:33N 40°30' W 073°58'1010.3
2015-Mar-26 09:33N 40°39' W 074°05'4 3.2
2015-Mar-26 08:24N 40°41' W 074°09'0 0.0
2015-Mar-26 07:30N 40°41' W 074°09'0 0.0
2015-Mar-26 06:30N 40°41' W 074°09'0 0.0
2015-Mar-26 05:30N 40°41' W 074°09'0 0.0
2015-Mar-26 04:30N 40°41' W 074°09'0 0.0
2015-Mar-26 03:30N 40°41' W 074°09'0 0.0
2015-Mar-26 02:33N 40°41' W 074°09'0 0.0
2015-Mar-26 01:30N 40°41' W 074°09'0 0.0
2015-Mar-26 00:30N 40°41' W 074°09'0 0.0
2015-Mar-25 23:30N 40°41' W 074°09'0 0.0
2015-Mar-25 22:33N 40°41' W 074°09'0 0.0
2015-Mar-25 21:33N 40°41' W 074°09'0 0.0
2015-Mar-25 20:33N 40°41' W 074°09'0 0.0
2015-Mar-25 19:30N 40°41' W 074°09'0 0.0
2015-Mar-25 18:30N 40°41' W 074°09'0 0.0
2015-Mar-25 17:30N 40°41' W 074°09'0 0.0
2015-Mar-25 16:30N 40°41' W 074°09'0 0.0
2015-Mar-25 15:30N 40°41' W 074°09'0 0.0
2015-Mar-25 14:18N 40°41' W 074°09'0 0.0
2015-Mar-25 13:30N 40°41' W 074°09'0 0.0
2015-Mar-25 12:30N 40°41' W 074°09'0 0.1
2015-Mar-25 11:33N 40°41' W 074°09'3 3.0
2015-Mar-25 10:33N 40°39' W 074°07'7 7.2
2015-Mar-25 09:33N 40°33' W 074°01'10 9.8
2015-Mar-25 08:33N 40°28' W 073°50'9 9.0
2015-Mar-25 07:33N 40°23' W 073°41'1111.4
2015-Mar-25 06:33N 40°16' W 073°28'1414.1
2015-Mar-25 05:34N 40°08' W 073°13'1414.1
2015-Mar-25 04:34N 40°05' W 072°56'2814.2
2015-Mar-25 02:33N 40°00' W 072°19'2217.0
2015-Mar-25 01:14N 39°56' W 071°50'1217.0
2015-Mar-25 00:34N 39°54' W 071°35'1717.1
2015-Mar-24 23:33N 39°52' W 071°13'3416.9
2015-Mar-24 21:31N 39°46' W 070°29'3416.3
2015-Mar-24 19:28N 39°40' W 069°46'1816.0
2015-Mar-24 18:21N 39°37' W 069°23'1315.9
2015-Mar-24 17:34N 39°35' W 069°07'1111.1
2015-Mar-24 16:34N 39°33' W 068°53'  
Track history (hours):
 
Tides and Currents Weather Stations Pressure Air Temp Water Temp Dewpoint Dewpoint Depression Visibility Wind Speed Wind Dir Waves Ship Positions

Fesco Vladimir

Last reported at 2015-Apr-01 20:33 UTC. Time now 2015-Apr-01 21:19 UTC.
Position N 40°30' W 073°39'.

Length 184 m; draft 8.5 m.

Type: Cargo ship. MMSI: 209777000.

Date/timePositionNaut miles runAvg speedWind from/ knotsBaromVisibWave heightAir tempDewpointWater temp
2015-Apr-01 20:33N 40°30' W 073°39'1610.9
2015-Apr-01 19:06N 40°15' W 073°45'1114.1
2015-Apr-01 18:20N 40°04' W 073°43'1114.6
2015-Apr-01 17:33N 39°53' W 073°41'1414.3
2015-Apr-01 16:33N 39°39' W 073°41'1414.1
2015-Apr-01 15:33N 39°24' W 073°44'32714.1
2015-Mar-31 16:25N 34°15' W 075°58'1214.0
2015-Mar-31 15:32N 34°08' W 076°10'1010.3
2015-Mar-31 14:33N 34°02' W 076°20'1714.9
2015-Mar-31 13:26N 33°53' W 076°36'227 8.3
2015-Mar-30 10:04N 31°58' W 080°30'7 9.8
2015-Mar-30 09:19N 31°58' W 080°39'810.6
2015-Mar-30 08:33N 32°00' W 080°48'1111.4
2015-Mar-30 07:34N 32°06' W 080°60'7 6.5
2015-Mar-30 06:33N 32°07' W 081°07'1 1.4
2015-Mar-30 05:33N 32°08' W 081°08'0 0.0
2015-Mar-30 04:33N 32°08' W 081°08'0 0.0
2015-Mar-30 03:33N 32°08' W 081°08'0 0.0
2015-Mar-30 02:33N 32°08' W 081°08'0 0.0
2015-Mar-30 01:33N 32°08' W 081°08'0 0.0
2015-Mar-30 00:33N 32°08' W 081°08'0 0.0
2015-Mar-29 23:33N 32°08' W 081°08'0 0.0
2015-Mar-29 22:33N 32°08' W 081°08'0 0.0
2015-Mar-29 21:33N 32°08' W 081°08'0 0.0
2015-Mar-29 20:33N 32°08' W 081°08'0 0.0
2015-Mar-29 19:33N 32°08' W 081°08'0 0.0
2015-Mar-29 18:33N 32°08' W 081°08'0 0.0
2015-Mar-29 17:30N 32°08' W 081°08'0 0.0
2015-Mar-29 16:33N 32°08' W 081°08'0 0.0
2015-Mar-29 15:33N 32°08' W 081°08'2 1.8
2015-Mar-29 14:33N 32°06' W 081°07'6 6.0
2015-Mar-29 13:33N 32°06' W 081°00'1111.0
2015-Mar-29 12:34N 32°01' W 080°48'1111.2
2015-Mar-29 11:34N 31°58' W 080°36'10 9.6
2015-Mar-29 10:34N 31°58' W 080°24'25515.7
2015-Mar-28 18:19N 34°22' W 076°13'317 6.3
2015-Mar-26 16:19N 39°20' W 073°59'1013.4
2015-Mar-26 15:33N 39°30' W 073°56'1313.2
2015-Mar-26 14:34N 39°43' W 073°52'1413.6
2015-Mar-26 13:32N 39°57' W 073°51'2814.2
2015-Mar-26 11:33N 40°25' W 073°49'8 8.2
2015-Mar-26 10:33N 40°30' W 073°58'1010.3
2015-Mar-26 09:33N 40°39' W 074°05'4 3.2
2015-Mar-26 08:24N 40°41' W 074°09'0 0.0
2015-Mar-26 07:30N 40°41' W 074°09'0 0.0
2015-Mar-26 06:30N 40°41' W 074°09'0 0.0
2015-Mar-26 05:30N 40°41' W 074°09'0 0.0
2015-Mar-26 04:30N 40°41' W 074°09'0 0.0
2015-Mar-26 03:30N 40°41' W 074°09'0 0.0
2015-Mar-26 02:33N 40°41' W 074°09'0 0.0
2015-Mar-26 01:30N 40°41' W 074°09'0 0.0
2015-Mar-26 00:30N 40°41' W 074°09'0 0.0
2015-Mar-25 23:30N 40°41' W 074°09'0 0.0
2015-Mar-25 22:33N 40°41' W 074°09'0 0.0
2015-Mar-25 21:33N 40°41' W 074°09'0 0.0
2015-Mar-25 20:33N 40°41' W 074°09'0 0.0
2015-Mar-25 19:30N 40°41' W 074°09'0 0.0
2015-Mar-25 18:30N 40°41' W 074°09'0 0.0
2015-Mar-25 17:30N 40°41' W 074°09'0 0.0
2015-Mar-25 16:30N 40°41' W 074°09'0 0.0
2015-Mar-25 15:30N 40°41' W 074°09'0 0.0
2015-Mar-25 14:18N 40°41' W 074°09'0 0.0
2015-Mar-25 13:30N 40°41' W 074°09'0 0.0
2015-Mar-25 12:30N 40°41' W 074°09'0 0.1
2015-Mar-25 11:33N 40°41' W 074°09'3 3.0
2015-Mar-25 10:33N 40°39' W 074°07'7 7.2
2015-Mar-25 09:33N 40°33' W 074°01'10 9.8
2015-Mar-25 08:33N 40°28' W 073°50'9 9.0
2015-Mar-25 07:33N 40°23' W 073°41'1111.4
2015-Mar-25 06:33N 40°16' W 073°28'1414.1
2015-Mar-25 05:34N 40°08' W 073°13'1414.1
2015-Mar-25 04:34N 40°05' W 072°56'2814.2
2015-Mar-25 02:33N 40°00' W 072°19'2217.0
2015-Mar-25 01:14N 39°56' W 071°50'1217.0
2015-Mar-25 00:34N 39°54' W 071°35'1717.1
2015-Mar-24 23:33N 39°52' W 071°13'3416.9
2015-Mar-24 21:31N 39°46' W 070°29'3416.3
2015-Mar-24 19:28N 39°40' W 069°46'1816.0
2015-Mar-24 18:21N 39°37' W 069°23'1315.9
2015-Mar-24 17:34N 39°35' W 069°07'1111.1
2015-Mar-24 16:34N 39°33' W 068°53'  

Dump ship's entire track history